sensor_id;sensor_type;location;lat;lon;timestamp;P1;durP1;ratioP1;P2;durP2;ratioP2
1370;SDS011;14306;49.942;11.570;2023-06-14T00:00:17;9.27;;;7.50;;
1370;SDS011;14306;49.942;11.570;2023-06-14T00:02:48;10.77;;;7.63;;
1370;SDS011;14306;49.942;11.570;2023-06-14T00:05:16;9.33;;;7.40;;
1370;SDS011;14306;49.942;11.570;2023-06-14T00:07:44;12.60;;;7.13;;
1370;SDS011;14306;49.942;11.570;2023-06-14T00:10:15;12.60;;;7.53;;
1370;SDS011;14306;49.942;11.570;2023-06-14T00:12:43;9.63;;;8.13;;
1370;SDS011;14306;49.942;11.570;2023-06-14T00:15:11;14.23;;;8.60;;
1370;SDS011;14306;49.942;11.570;2023-06-14T00:17:40;12.90;;;8.67;;
1370;SDS011;14306;49.942;11.570;2023-06-14T00:20:10;9.67;;;7.30;;
1370;SDS011;14306;49.942;11.570;2023-06-14T00:22:38;11.70;;;7.67;;
1370;SDS011;14306;49.942;11.570;2023-06-14T00:25:07;10.20;;;8.27;;
1370;SDS011;14306;49.942;11.570;2023-06-14T00:27:53;12.10;;;8.83;;
1370;SDS011;14306;49.942;11.570;2023-06-14T00:30:22;14.10;;;8.03;;
1370;SDS011;14306;49.942;11.570;2023-06-14T00:32:51;22.10;;;8.00;;
1370;SDS011;14306;49.942;11.570;2023-06-14T00:35:21;12.83;;;8.60;;
1370;SDS011;14306;49.942;11.570;2023-06-14T00:37:48;27.57;;;9.97;;
1370;SDS011;14306;49.942;11.570;2023-06-14T00:40:17;10.93;;;8.03;;
1370;SDS011;14306;49.942;11.570;2023-06-14T00:42:44;10.13;;;7.80;;
1370;SDS011;14306;49.942;11.570;2023-06-14T00:45:12;12.00;;;8.33;;
1370;SDS011;14306;49.942;11.570;2023-06-14T00:47:41;9.97;;;7.50;;
1370;SDS011;14306;49.942;11.570;2023-06-14T00:50:10;10.50;;;7.97;;
1370;SDS011;14306;49.942;11.570;2023-06-14T00:52:41;11.10;;;8.23;;
1370;SDS011;14306;49.942;11.570;2023-06-14T00:55:09;10.13;;;8.00;;
1370;SDS011;14306;49.942;11.570;2023-06-14T00:57:37;15.43;;;9.30;;
1370;SDS011;14306;49.942;11.570;2023-06-14T01:00:07;13.73;;;9.10;;
1370;SDS011;14306;49.942;11.570;2023-06-14T01:02:36;10.27;;;8.20;;
1370;SDS011;14306;49.942;11.570;2023-06-14T01:05:05;10.13;;;7.53;;
1370;SDS011;14306;49.942;11.570;2023-06-14T01:07:40;12.43;;;8.80;;
1370;SDS011;14306;49.942;11.570;2023-06-14T01:10:20;10.97;;;8.47;;
1370;SDS011;14306;49.942;11.570;2023-06-14T01:13:02;9.93;;;7.97;;
1370;SDS011;14306;49.942;11.570;2023-06-14T01:15:35;13.67;;;8.37;;
1370;SDS011;14306;49.942;11.570;2023-06-14T01:18:04;12.60;;;8.00;;
1370;SDS011;14306;49.942;11.570;2023-06-14T01:20:33;15.83;;;8.47;;
1370;SDS011;14306;49.942;11.570;2023-06-14T01:23:04;13.10;;;8.90;;
1370;SDS011;14306;49.942;11.570;2023-06-14T01:25:33;14.63;;;8.80;;
1370;SDS011;14306;49.942;11.570;2023-06-14T01:28:02;14.87;;;9.17;;
1370;SDS011;14306;49.942;11.570;2023-06-14T01:30:39;10.13;;;7.90;;
1370;SDS011;14306;49.942;11.570;2023-06-14T01:33:11;13.13;;;8.80;;
1370;SDS011;14306;49.942;11.570;2023-06-14T01:35:42;12.50;;;9.40;;
1370;SDS011;14306;49.942;11.570;2023-06-14T01:38:12;12.87;;;8.47;;
1370;SDS011;14306;49.942;11.570;2023-06-14T01:40:41;14.50;;;8.80;;
1370;SDS011;14306;49.942;11.570;2023-06-14T01:43:12;17.17;;;9.67;;
1370;SDS011;14306;49.942;11.570;2023-06-14T01:45:41;11.07;;;8.60;;
1370;SDS011;14306;49.942;11.570;2023-06-14T01:48:10;10.13;;;8.27;;
1370;SDS011;14306;49.942;11.570;2023-06-14T01:50:39;14.80;;;8.50;;
1370;SDS011;14306;49.942;11.570;2023-06-14T01:53:07;15.73;;;9.33;;
1370;SDS011;14306;49.942;11.570;2023-06-14T01:55:38;10.17;;;8.13;;
1370;SDS011;14306;49.942;11.570;2023-06-14T01:58:10;17.93;;;7.83;;
1370;SDS011;14306;49.942;11.570;2023-06-14T02:00:38;11.03;;;7.43;;
1370;SDS011;14306;49.942;11.570;2023-06-14T02:03:07;11.43;;;7.57;;
1370;SDS011;14306;49.942;11.570;2023-06-14T02:05:35;11.47;;;8.30;;
1370;SDS011;14306;49.942;11.570;2023-06-14T02:08:05;12.20;;;8.47;;
1370;SDS011;14306;49.942;11.570;2023-06-14T02:10:33;11.30;;;8.17;;
1370;SDS011;14306;49.942;11.570;2023-06-14T02:13:03;13.33;;;8.77;;
1370;SDS011;14306;49.942;11.570;2023-06-14T02:15:32;19.03;;;8.07;;
1370;SDS011;14306;49.942;11.570;2023-06-14T02:18:02;9.83;;;7.50;;
1370;SDS011;14306;49.942;11.570;2023-06-14T02:20:31;10.27;;;8.63;;
1370;SDS011;14306;49.942;11.570;2023-06-14T02:22:58;9.00;;;7.43;;
1370;SDS011;14306;49.942;11.570;2023-06-14T02:25:27;9.97;;;7.83;;
1370;SDS011;14306;49.942;11.570;2023-06-14T02:27:56;9.20;;;8.27;;
1370;SDS011;14306;49.942;11.570;2023-06-14T02:30:25;9.90;;;8.10;;
1370;SDS011;14306;49.942;11.570;2023-06-14T02:32:53;9.90;;;8.70;;
1370;SDS011;14306;49.942;11.570;2023-06-14T02:35:21;27.73;;;10.37;;
1370;SDS011;14306;49.942;11.570;2023-06-14T02:37:52;11.80;;;8.67;;
1370;SDS011;14306;49.942;11.570;2023-06-14T02:40:22;11.77;;;9.13;;
1370;SDS011;14306;49.942;11.570;2023-06-14T02:42:50;20.63;;;11.57;;
1370;SDS011;14306;49.942;11.570;2023-06-14T02:45:18;13.00;;;9.20;;
1370;SDS011;14306;49.942;11.570;2023-06-14T02:47:49;12.17;;;9.40;;
1370;SDS011;14306;49.942;11.570;2023-06-14T02:50:18;12.50;;;7.60;;
1370;SDS011;14306;49.942;11.570;2023-06-14T02:52:48;10.30;;;7.87;;
1370;SDS011;14306;49.942;11.570;2023-06-14T02:55:16;13.13;;;7.80;;
1370;SDS011;14306;49.942;11.570;2023-06-14T02:57:44;9.47;;;7.00;;
1370;SDS011;14306;49.942;11.570;2023-06-14T03:00:14;10.20;;;8.10;;
1370;SDS011;14306;49.942;11.570;2023-06-14T03:02:43;15.53;;;7.60;;
1370;SDS011;14306;49.942;11.570;2023-06-14T03:05:14;13.20;;;8.43;;
1370;SDS011;14306;49.942;11.570;2023-06-14T03:07:42;13.93;;;8.70;;
1370;SDS011;14306;49.942;11.570;2023-06-14T03:10:12;22.77;;;8.90;;
1370;SDS011;14306;49.942;11.570;2023-06-14T03:12:41;10.87;;;8.17;;
1370;SDS011;14306;49.942;11.570;2023-06-14T03:15:10;14.03;;;10.60;;
1370;SDS011;14306;49.942;11.570;2023-06-14T03:17:39;13.40;;;10.73;;
1370;SDS011;14306;49.942;11.570;2023-06-14T03:20:14;13.90;;;9.63;;
1370;SDS011;14306;49.942;11.570;2023-06-14T03:22:42;19.23;;;9.53;;
1370;SDS011;14306;49.942;11.570;2023-06-14T03:25:12;15.20;;;9.63;;
1370;SDS011;14306;49.942;11.570;2023-06-14T03:27:41;13.70;;;8.80;;
1370;SDS011;14306;49.942;11.570;2023-06-14T03:30:10;9.47;;;8.13;;
1370;SDS011;14306;49.942;11.570;2023-06-14T03:32:39;10.13;;;8.20;;
1370;SDS011;14306;49.942;11.570;2023-06-14T03:35:07;12.67;;;8.60;;
1370;SDS011;14306;49.942;11.570;2023-06-14T03:37:45;10.90;;;7.57;;
1370;SDS011;14306;49.942;11.570;2023-06-14T03:40:15;12.40;;;8.37;;
1370;SDS011;14306;49.942;11.570;2023-06-14T03:42:44;9.07;;;7.57;;
1370;SDS011;14306;49.942;11.570;2023-06-14T03:45:12;11.77;;;8.00;;
1370;SDS011;14306;49.942;11.570;2023-06-14T03:47:40;11.33;;;6.73;;
1370;SDS011;14306;49.942;11.570;2023-06-14T03:50:09;7.93;;;7.13;;
1370;SDS011;14306;49.942;11.570;2023-06-14T03:52:37;7.83;;;7.03;;
1370;SDS011;14306;49.942;11.570;2023-06-14T03:55:10;9.80;;;7.23;;
1370;SDS011;14306;49.942;11.570;2023-06-14T03:57:42;9.37;;;6.33;;
1370;SDS011;14306;49.942;11.570;2023-06-14T04:00:29;9.17;;;6.70;;
1370;SDS011;14306;49.942;11.570;2023-06-14T04:02:57;8.27;;;6.10;;
1370;SDS011;14306;49.942;11.570;2023-06-14T04:05:25;13.07;;;6.80;;
1370;SDS011;14306;49.942;11.570;2023-06-14T04:07:53;8.30;;;6.37;;
1370;SDS011;14306;49.942;11.570;2023-06-14T04:10:24;10.83;;;7.10;;
1370;SDS011;14306;49.942;11.570;2023-06-14T04:12:52;10.53;;;7.47;;
1370;SDS011;14306;49.942;11.570;2023-06-14T04:15:20;9.20;;;6.20;;
1370;SDS011;14306;49.942;11.570;2023-06-14T04:17:49;12.20;;;6.70;;
1370;SDS011;14306;49.942;11.570;2023-06-14T04:20:18;8.70;;;7.00;;
1370;SDS011;14306;49.942;11.570;2023-06-14T04:22:46;6.87;;;6.17;;
1370;SDS011;14306;49.942;11.570;2023-06-14T04:25:15;9.80;;;6.90;;
1370;SDS011;14306;49.942;11.570;2023-06-14T04:27:52;7.70;;;6.33;;
1370;SDS011;14306;49.942;11.570;2023-06-14T04:30:20;14.17;;;6.80;;
1370;SDS011;14306;49.942;11.570;2023-06-14T04:32:53;11.10;;;6.40;;
1370;SDS011;14306;49.942;11.570;2023-06-14T04:35:22;7.87;;;6.40;;
1370;SDS011;14306;49.942;11.570;2023-06-14T04:37:51;10.13;;;5.47;;
1370;SDS011;14306;49.942;11.570;2023-06-14T04:40:19;8.40;;;5.97;;
1370;SDS011;14306;49.942;11.570;2023-06-14T04:42:48;6.23;;;5.50;;
1370;SDS011;14306;49.942;11.570;2023-06-14T04:45:18;7.90;;;6.23;;
1370;SDS011;14306;49.942;11.570;2023-06-14T04:47:46;7.60;;;6.00;;
1370;SDS011;14306;49.942;11.570;2023-06-14T04:50:14;10.53;;;6.00;;
1370;SDS011;14306;49.942;11.570;2023-06-14T04:52:44;8.23;;;5.40;;
1370;SDS011;14306;49.942;11.570;2023-06-14T04:55:12;11.80;;;5.93;;
1370;SDS011;14306;49.942;11.570;2023-06-14T04:57:41;8.50;;;5.33;;
1370;SDS011;14306;49.942;11.570;2023-06-14T05:00:09;12.13;;;6.10;;
1370;SDS011;14306;49.942;11.570;2023-06-14T05:02:40;8.93;;;5.33;;
1370;SDS011;14306;49.942;11.570;2023-06-14T05:05:08;7.67;;;5.37;;
1370;SDS011;14306;49.942;11.570;2023-06-14T05:07:37;12.10;;;5.37;;
1370;SDS011;14306;49.942;11.570;2023-06-14T05:10:08;14.47;;;6.47;;
1370;SDS011;14306;49.942;11.570;2023-06-14T05:12:36;6.23;;;5.63;;
1370;SDS011;14306;49.942;11.570;2023-06-14T05:15:05;6.30;;;5.40;;
1370;SDS011;14306;49.942;11.570;2023-06-14T05:17:35;8.57;;;6.67;;
1370;SDS011;14306;49.942;11.570;2023-06-14T05:20:06;7.63;;;6.67;;
1370;SDS011;14306;49.942;11.570;2023-06-14T05:22:36;10.20;;;6.97;;
1370;SDS011;14306;49.942;11.570;2023-06-14T05:25:04;12.80;;;7.20;;
1370;SDS011;14306;49.942;11.570;2023-06-14T05:27:33;10.40;;;6.03;;
1370;SDS011;14306;49.942;11.570;2023-06-14T05:30:04;10.70;;;6.33;;
1370;SDS011;14306;49.942;11.570;2023-06-14T05:32:33;6.90;;;5.73;;
1370;SDS011;14306;49.942;11.570;2023-06-14T05:35:02;8.43;;;5.77;;
1370;SDS011;14306;49.942;11.570;2023-06-14T05:37:32;12.20;;;6.77;;
1370;SDS011;14306;49.942;11.570;2023-06-14T05:40:00;8.63;;;5.80;;
1370;SDS011;14306;49.942;11.570;2023-06-14T05:42:30;7.00;;;5.60;;
1370;SDS011;14306;49.942;11.570;2023-06-14T05:44:59;11.00;;;6.57;;
1370;SDS011;14306;49.942;11.570;2023-06-14T05:47:27;10.33;;;6.00;;
1370;SDS011;14306;49.942;11.570;2023-06-14T05:49:55;15.90;;;6.83;;
1370;SDS011;14306;49.942;11.570;2023-06-14T05:52:24;46.43;;;8.40;;
1370;SDS011;14306;49.942;11.570;2023-06-14T05:54:53;29.27;;;8.30;;
1370;SDS011;14306;49.942;11.570;2023-06-14T05:57:21;25.27;;;6.37;;
1370;SDS011;14306;49.942;11.570;2023-06-14T05:59:50;7.53;;;6.67;;
1370;SDS011;14306;49.942;11.570;2023-06-14T06:02:18;7.80;;;5.40;;
1370;SDS011;14306;49.942;11.570;2023-06-14T06:04:46;9.70;;;5.90;;
1370;SDS011;14306;49.942;11.570;2023-06-14T06:07:14;11.37;;;5.03;;
1370;SDS011;14306;49.942;11.570;2023-06-14T06:09:42;5.50;;;4.90;;
1370;SDS011;14306;49.942;11.570;2023-06-14T06:12:12;8.53;;;4.93;;
1370;SDS011;14306;49.942;11.570;2023-06-14T06:14:40;10.67;;;5.20;;
1370;SDS011;14306;49.942;11.570;2023-06-14T06:17:08;5.30;;;4.70;;
1370;SDS011;14306;49.942;11.570;2023-06-14T06:19:36;5.93;;;4.50;;
1370;SDS011;14306;49.942;11.570;2023-06-14T06:22:05;5.53;;;4.57;;
1370;SDS011;14306;49.942;11.570;2023-06-14T06:24:34;4.73;;;4.23;;
1370;SDS011;14306;49.942;11.570;2023-06-14T06:27:02;4.20;;;3.87;;
1370;SDS011;14306;49.942;11.570;2023-06-14T06:29:32;5.80;;;3.67;;
1370;SDS011;14306;49.942;11.570;2023-06-14T06:32:00;5.73;;;4.00;;
1370;SDS011;14306;49.942;11.570;2023-06-14T06:34:28;3.87;;;3.40;;
1370;SDS011;14306;49.942;11.570;2023-06-14T06:36:56;5.47;;;3.70;;
1370;SDS011;14306;49.942;11.570;2023-06-14T06:39:25;7.10;;;4.17;;
1370;SDS011;14306;49.942;11.570;2023-06-14T06:41:53;4.93;;;4.40;;
1370;SDS011;14306;49.942;11.570;2023-06-14T06:44:21;6.20;;;3.23;;
1370;SDS011;14306;49.942;11.570;2023-06-14T06:46:51;6.63;;;3.63;;
1370;SDS011;14306;49.942;11.570;2023-06-14T06:49:19;6.87;;;3.50;;
1370;SDS011;14306;49.942;11.570;2023-06-14T06:51:58;4.37;;;3.93;;
1370;SDS011;14306;49.942;11.570;2023-06-14T06:54:28;7.07;;;4.50;;
1370;SDS011;14306;49.942;11.570;2023-06-14T06:56:56;6.40;;;3.80;;
1370;SDS011;14306;49.942;11.570;2023-06-14T06:59:25;6.60;;;3.43;;
1370;SDS011;14306;49.942;11.570;2023-06-14T07:01:54;7.40;;;3.70;;
1370;SDS011;14306;49.942;11.570;2023-06-14T07:04:22;4.60;;;3.67;;
1370;SDS011;14306;49.942;11.570;2023-06-14T07:06:50;8.00;;;3.50;;
1370;SDS011;14306;49.942;11.570;2023-06-14T07:09:19;4.80;;;3.43;;
1370;SDS011;14306;49.942;11.570;2023-06-14T07:11:47;6.23;;;3.50;;
1370;SDS011;14306;49.942;11.570;2023-06-14T07:14:16;4.50;;;3.50;;
1370;SDS011;14306;49.942;11.570;2023-06-14T07:16:44;4.10;;;3.37;;
1370;SDS011;14306;49.942;11.570;2023-06-14T07:19:15;6.50;;;4.00;;
1370;SDS011;14306;49.942;11.570;2023-06-14T07:21:43;7.13;;;3.40;;
1370;SDS011;14306;49.942;11.570;2023-06-14T07:24:12;4.33;;;3.30;;
1370;SDS011;14306;49.942;11.570;2023-06-14T07:26:39;5.73;;;3.60;;
1370;SDS011;14306;49.942;11.570;2023-06-14T07:29:07;5.10;;;3.37;;
1370;SDS011;14306;49.942;11.570;2023-06-14T07:31:38;6.73;;;2.73;;
1370;SDS011;14306;49.942;11.570;2023-06-14T07:34:06;4.13;;;3.13;;
1370;SDS011;14306;49.942;11.570;2023-06-14T07:36:36;7.87;;;2.63;;
1370;SDS011;14306;49.942;11.570;2023-06-14T07:39:04;4.50;;;3.67;;
1370;SDS011;14306;49.942;11.570;2023-06-14T07:41:33;5.47;;;2.83;;
1370;SDS011;14306;49.942;11.570;2023-06-14T07:44:01;3.00;;;2.07;;
1370;SDS011;14306;49.942;11.570;2023-06-14T07:46:30;3.73;;;2.50;;
1370;SDS011;14306;49.942;11.570;2023-06-14T07:48:57;3.83;;;2.30;;
1370;SDS011;14306;49.942;11.570;2023-06-14T07:51:26;2.50;;;1.83;;
1370;SDS011;14306;49.942;11.570;2023-06-14T07:53:56;4.47;;;2.13;;
1370;SDS011;14306;49.942;11.570;2023-06-14T07:56:24;3.37;;;1.60;;
1370;SDS011;14306;49.942;11.570;2023-06-14T07:58:52;2.77;;;2.07;;
1370;SDS011;14306;49.942;11.570;2023-06-14T08:01:21;3.63;;;1.53;;
1370;SDS011;14306;49.942;11.570;2023-06-14T08:03:51;1.83;;;1.73;;
1370;SDS011;14306;49.942;11.570;2023-06-14T08:06:20;2.07;;;1.83;;
1370;SDS011;14306;49.942;11.570;2023-06-14T08:08:48;3.33;;;1.60;;
1370;SDS011;14306;49.942;11.570;2023-06-14T08:11:18;1.57;;;1.47;;
1370;SDS011;14306;49.942;11.570;2023-06-14T08:13:46;4.23;;;1.60;;
1370;SDS011;14306;49.942;11.570;2023-06-14T08:16:14;1.93;;;1.50;;
1370;SDS011;14306;49.942;11.570;2023-06-14T08:18:43;2.77;;;1.40;;
1370;SDS011;14306;49.942;11.570;2023-06-14T08:21:11;1.40;;;1.30;;
1370;SDS011;14306;49.942;11.570;2023-06-14T08:23:41;2.50;;;1.40;;
1370;SDS011;14306;49.942;11.570;2023-06-14T08:26:10;2.70;;;1.93;;
1370;SDS011;14306;49.942;11.570;2023-06-14T08:28:39;1.90;;;1.80;;
1370;SDS011;14306;49.942;11.570;2023-06-14T08:31:08;1.53;;;1.43;;
1370;SDS011;14306;49.942;11.570;2023-06-14T08:33:36;1.70;;;1.40;;
1370;SDS011;14306;49.942;11.570;2023-06-14T08:36:05;1.70;;;1.60;;
1370;SDS011;14306;49.942;11.570;2023-06-14T08:38:34;4.03;;;1.73;;
1370;SDS011;14306;49.942;11.570;2023-06-14T08:41:04;2.60;;;2.17;;
1370;SDS011;14306;49.942;11.570;2023-06-14T08:43:33;8.87;;;1.57;;
1370;SDS011;14306;49.942;11.570;2023-06-14T08:46:04;2.60;;;1.70;;
1370;SDS011;14306;49.942;11.570;2023-06-14T08:48:35;4.23;;;1.77;;
1370;SDS011;14306;49.942;11.570;2023-06-14T08:51:04;2.27;;;1.53;;
1370;SDS011;14306;49.942;11.570;2023-06-14T08:53:32;2.03;;;1.73;;
1370;SDS011;14306;49.942;11.570;2023-06-14T08:56:04;2.60;;;1.90;;
1370;SDS011;14306;49.942;11.570;2023-06-14T08:58:34;2.27;;;1.90;;
1370;SDS011;14306;49.942;11.570;2023-06-14T09:01:03;1.53;;;1.43;;
1370;SDS011;14306;49.942;11.570;2023-06-14T09:03:33;1.40;;;1.30;;
1370;SDS011;14306;49.942;11.570;2023-06-14T09:06:02;2.77;;;1.77;;
1370;SDS011;14306;49.942;11.570;2023-06-14T09:08:31;3.53;;;1.60;;
1370;SDS011;14306;49.942;11.570;2023-06-14T09:11:00;2.17;;;1.40;;
1370;SDS011;14306;49.942;11.570;2023-06-14T09:13:29;5.23;;;1.60;;
1370;SDS011;14306;49.942;11.570;2023-06-14T09:15:57;3.90;;;1.57;;
1370;SDS011;14306;49.942;11.570;2023-06-14T09:18:34;1.60;;;1.50;;
1370;SDS011;14306;49.942;11.570;2023-06-14T09:21:03;3.23;;;2.00;;
1370;SDS011;14306;49.942;11.570;2023-06-14T09:23:33;2.07;;;1.67;;
1370;SDS011;14306;49.942;11.570;2023-06-14T09:26:08;7.43;;;2.20;;
1370;SDS011;14306;49.942;11.570;2023-06-14T09:28:40;2.70;;;1.43;;
1370;SDS011;14306;49.942;11.570;2023-06-14T09:31:10;1.77;;;1.67;;
1370;SDS011;14306;49.942;11.570;2023-06-14T09:33:40;2.40;;;1.70;;
1370;SDS011;14306;49.942;11.570;2023-06-14T09:36:10;1.43;;;1.33;;
1370;SDS011;14306;49.942;11.570;2023-06-14T09:38:41;5.97;;;1.90;;
1370;SDS011;14306;49.942;11.570;2023-06-14T09:41:10;3.10;;;1.73;;
1370;SDS011;14306;49.942;11.570;2023-06-14T09:43:41;4.17;;;1.60;;
1370;SDS011;14306;49.942;11.570;2023-06-14T09:46:13;3.00;;;1.93;;
1370;SDS011;14306;49.942;11.570;2023-06-14T09:48:44;1.93;;;1.77;;
1370;SDS011;14306;49.942;11.570;2023-06-14T09:51:16;3.07;;;2.20;;
1370;SDS011;14306;49.942;11.570;2023-06-14T09:53:47;6.67;;;1.97;;
1370;SDS011;14306;49.942;11.570;2023-06-14T09:56:22;7.40;;;3.27;;
1370;SDS011;14306;49.942;11.570;2023-06-14T09:58:57;2.50;;;1.90;;
1370;SDS011;14306;49.942;11.570;2023-06-14T10:01:34;3.10;;;1.50;;
1370;SDS011;14306;49.942;11.570;2023-06-14T10:04:10;2.47;;;1.53;;
1370;SDS011;14306;49.942;11.570;2023-06-14T10:06:45;3.50;;;1.60;;
1370;SDS011;14306;49.942;11.570;2023-06-14T10:09:15;1.20;;;1.10;;
1370;SDS011;14306;49.942;11.570;2023-06-14T10:11:45;2.10;;;1.60;;
1370;SDS011;14306;49.942;11.570;2023-06-14T10:14:15;2.33;;;1.60;;
1370;SDS011;14306;49.942;11.570;2023-06-14T10:16:47;1.97;;;1.60;;
1370;SDS011;14306;49.942;11.570;2023-06-14T10:19:29;1.53;;;1.43;;
1370;SDS011;14306;49.942;11.570;2023-06-14T10:22:08;4.50;;;1.90;;
1370;SDS011;14306;49.942;11.570;2023-06-14T10:24:42;4.50;;;1.53;;
1370;SDS011;14306;49.942;11.570;2023-06-14T10:27:13;1.90;;;1.80;;
1370;SDS011;14306;49.942;11.570;2023-06-14T10:30:04;3.13;;;1.83;;
1370;SDS011;14306;49.942;11.570;2023-06-14T10:32:42;2.40;;;1.80;;
1370;SDS011;14306;49.942;11.570;2023-06-14T10:35:36;3.20;;;1.83;;
1370;SDS011;14306;49.942;11.570;2023-06-14T10:38:06;9.00;;;2.40;;
1370;SDS011;14306;49.942;11.570;2023-06-14T10:40:36;3.83;;;2.00;;
1370;SDS011;14306;49.942;11.570;2023-06-14T10:43:23;1.53;;;1.43;;
1370;SDS011;14306;49.942;11.570;2023-06-14T10:48:58;4.40;;;1.47;;
1370;SDS011;14306;49.942;11.570;2023-06-14T10:51:41;2.30;;;1.73;;
1370;SDS011;14306;49.942;11.570;2023-06-14T10:54:15;3.43;;;1.73;;
1370;SDS011;14306;49.942;11.570;2023-06-14T10:56:47;2.53;;;1.70;;
1370;SDS011;14306;49.942;11.570;2023-06-14T10:59:18;2.50;;;1.87;;
1370;SDS011;14306;49.942;11.570;2023-06-14T11:01:53;1.80;;;1.50;;
1370;SDS011;14306;49.942;11.570;2023-06-14T11:04:46;2.23;;;1.63;;
1370;SDS011;14306;49.942;11.570;2023-06-14T11:07:27;2.20;;;1.50;;
1370;SDS011;14306;49.942;11.570;2023-06-14T11:10:15;1.90;;;1.73;;
1370;SDS011;14306;49.942;11.570;2023-06-14T11:13:04;2.53;;;2.00;;
1370;SDS011;14306;49.942;11.570;2023-06-14T11:15:36;1.63;;;1.53;;
1370;SDS011;14306;49.942;11.570;2023-06-14T11:18:15;2.13;;;1.90;;
1370;SDS011;14306;49.942;11.570;2023-06-14T11:20:46;4.03;;;1.80;;
1370;SDS011;14306;49.942;11.570;2023-06-14T11:23:17;2.47;;;2.03;;
1370;SDS011;14306;49.942;11.570;2023-06-14T11:25:52;1.93;;;1.77;;
1370;SDS011;14306;49.942;11.570;2023-06-14T11:28:34;2.30;;;2.10;;
1370;SDS011;14306;49.942;11.570;2023-06-14T11:31:06;3.20;;;2.23;;
1370;SDS011;14306;49.942;11.570;2023-06-14T11:33:36;2.40;;;2.20;;
1370;SDS011;14306;49.942;11.570;2023-06-14T11:36:06;3.27;;;1.93;;
1370;SDS011;14306;49.942;11.570;2023-06-14T11:38:37;1.90;;;1.70;;
1370;SDS011;14306;49.942;11.570;2023-06-14T11:41:07;3.17;;;2.00;;
1370;SDS011;14306;49.942;11.570;2023-06-14T11:43:36;2.50;;;2.23;;
1370;SDS011;14306;49.942;11.570;2023-06-14T11:46:06;3.53;;;2.23;;
1370;SDS011;14306;49.942;11.570;2023-06-14T11:48:44;6.50;;;2.17;;
1370;SDS011;14306;49.942;11.570;2023-06-14T11:51:13;2.80;;;2.37;;
1370;SDS011;14306;49.942;11.570;2023-06-14T11:53:44;5.80;;;2.30;;
1370;SDS011;14306;49.942;11.570;2023-06-14T11:56:15;2.97;;;2.07;;
1370;SDS011;14306;49.942;11.570;2023-06-14T11:58:45;2.43;;;2.23;;
1370;SDS011;14306;49.942;11.570;2023-06-14T12:01:16;2.57;;;2.37;;
1370;SDS011;14306;49.942;11.570;2023-06-14T12:03:47;3.10;;;2.17;;
1370;SDS011;14306;49.942;11.570;2023-06-14T12:06:25;3.30;;;2.30;;
1370;SDS011;14306;49.942;11.570;2023-06-14T12:09:02;2.20;;;2.00;;
1370;SDS011;14306;49.942;11.570;2023-06-14T12:11:34;5.37;;;1.70;;
1370;SDS011;14306;49.942;11.570;2023-06-14T12:14:05;2.50;;;2.20;;
1370;SDS011;14306;49.942;11.570;2023-06-14T12:16:34;4.00;;;2.30;;
1370;SDS011;14306;49.942;11.570;2023-06-14T12:19:11;4.80;;;3.30;;
1370;SDS011;14306;49.942;11.570;2023-06-14T12:21:41;3.37;;;2.33;;
1370;SDS011;14306;49.942;11.570;2023-06-14T12:24:12;3.40;;;2.70;;
1370;SDS011;14306;49.942;11.570;2023-06-14T12:26:41;2.90;;;1.93;;
1370;SDS011;14306;49.942;11.570;2023-06-14T12:29:09;3.17;;;2.33;;
1370;SDS011;14306;49.942;11.570;2023-06-14T12:31:40;4.10;;;1.70;;
1370;SDS011;14306;49.942;11.570;2023-06-14T12:34:09;5.50;;;3.80;;
1370;SDS011;14306;49.942;11.570;2023-06-14T12:36:37;3.83;;;2.93;;
1370;SDS011;14306;49.942;11.570;2023-06-14T12:39:12;2.43;;;2.10;;
1370;SDS011;14306;49.942;11.570;2023-06-14T12:41:40;7.83;;;2.60;;
1370;SDS011;14306;49.942;11.570;2023-06-14T12:44:09;2.47;;;2.17;;
1370;SDS011;14306;49.942;11.570;2023-06-14T12:46:38;4.40;;;2.53;;
1370;SDS011;14306;49.942;11.570;2023-06-14T12:49:08;2.30;;;2.10;;
1370;SDS011;14306;49.942;11.570;2023-06-14T12:51:37;3.23;;;2.60;;
1370;SDS011;14306;49.942;11.570;2023-06-14T12:54:07;5.73;;;3.00;;
1370;SDS011;14306;49.942;11.570;2023-06-14T12:56:36;3.70;;;2.67;;
1370;SDS011;14306;49.942;11.570;2023-06-14T12:59:05;3.63;;;2.80;;
1370;SDS011;14306;49.942;11.570;2023-06-14T13:01:34;3.40;;;2.60;;
1370;SDS011;14306;49.942;11.570;2023-06-14T13:04:02;4.40;;;3.20;;
1370;SDS011;14306;49.942;11.570;2023-06-14T13:06:30;4.13;;;3.00;;
1370;SDS011;14306;49.942;11.570;2023-06-14T13:08:59;10.60;;;3.20;;
1370;SDS011;14306;49.942;11.570;2023-06-14T13:11:30;4.77;;;3.23;;
1370;SDS011;14306;49.942;11.570;2023-06-14T13:13:59;4.80;;;2.77;;
1370;SDS011;14306;49.942;11.570;2023-06-14T13:16:46;4.13;;;2.80;;
1370;SDS011;14306;49.942;11.570;2023-06-14T13:19:15;8.17;;;3.67;;
1370;SDS011;14306;49.942;11.570;2023-06-14T13:21:43;5.63;;;3.37;;
1370;SDS011;14306;49.942;11.570;2023-06-14T13:24:11;3.80;;;2.50;;
1370;SDS011;14306;49.942;11.570;2023-06-14T13:26:40;4.33;;;3.07;;
1370;SDS011;14306;49.942;11.570;2023-06-14T13:29:10;8.03;;;3.37;;
1370;SDS011;14306;49.942;11.570;2023-06-14T13:31:38;4.67;;;2.73;;
1370;SDS011;14306;49.942;11.570;2023-06-14T13:34:07;2.63;;;2.43;;
1370;SDS011;14306;49.942;11.570;2023-06-14T13:36:35;5.70;;;3.30;;
1370;SDS011;14306;49.942;11.570;2023-06-14T13:39:03;3.90;;;2.90;;
1370;SDS011;14306;49.942;11.570;2023-06-14T13:41:31;3.20;;;2.90;;
1370;SDS011;14306;49.942;11.570;2023-06-14T13:44:01;3.40;;;2.43;;
1370;SDS011;14306;49.942;11.570;2023-06-14T13:46:31;4.97;;;3.50;;
1370;SDS011;14306;49.942;11.570;2023-06-14T13:49:00;6.17;;;3.40;;
1370;SDS011;14306;49.942;11.570;2023-06-14T13:51:28;6.93;;;3.17;;
1370;SDS011;14306;49.942;11.570;2023-06-14T13:53:56;2.60;;;2.40;;
1370;SDS011;14306;49.942;11.570;2023-06-14T13:56:25;4.47;;;2.37;;
1370;SDS011;14306;49.942;11.570;2023-06-14T13:58:53;3.00;;;2.80;;
1370;SDS011;14306;49.942;11.570;2023-06-14T14:01:21;2.30;;;2.10;;
1370;SDS011;14306;49.942;11.570;2023-06-14T14:03:51;5.13;;;2.83;;
1370;SDS011;14306;49.942;11.570;2023-06-14T14:06:19;8.47;;;2.63;;
1370;SDS011;14306;49.942;11.570;2023-06-14T14:08:47;5.90;;;2.63;;
1370;SDS011;14306;49.942;11.570;2023-06-14T14:11:15;6.63;;;2.03;;
1370;SDS011;14306;49.942;11.570;2023-06-14T14:13:44;4.13;;;2.00;;
1370;SDS011;14306;49.942;11.570;2023-06-14T14:16:13;4.20;;;2.20;;
1370;SDS011;14306;49.942;11.570;2023-06-14T14:18:41;2.43;;;1.97;;
1370;SDS011;14306;49.942;11.570;2023-06-14T14:21:11;2.70;;;1.90;;
1370;SDS011;14306;49.942;11.570;2023-06-14T14:23:39;3.13;;;1.97;;
1370;SDS011;14306;49.942;11.570;2023-06-14T14:26:08;2.90;;;2.07;;
1370;SDS011;14306;49.942;11.570;2023-06-14T14:28:36;3.77;;;2.10;;
1370;SDS011;14306;49.942;11.570;2023-06-14T14:31:04;3.67;;;2.90;;
1370;SDS011;14306;49.942;11.570;2023-06-14T14:33:32;7.10;;;2.63;;
1370;SDS011;14306;49.942;11.570;2023-06-14T14:36:02;2.83;;;2.53;;
1370;SDS011;14306;49.942;11.570;2023-06-14T14:38:31;4.47;;;3.00;;
1370;SDS011;14306;49.942;11.570;2023-06-14T14:41:00;3.97;;;3.17;;
1370;SDS011;14306;49.942;11.570;2023-06-14T14:43:29;3.50;;;3.20;;
1370;SDS011;14306;49.942;11.570;2023-06-14T14:45:58;2.80;;;2.60;;
1370;SDS011;14306;49.942;11.570;2023-06-14T14:48:26;4.83;;;2.93;;
1370;SDS011;14306;49.942;11.570;2023-06-14T14:50:55;3.57;;;3.03;;
1370;SDS011;14306;49.942;11.570;2023-06-14T14:53:23;2.70;;;2.50;;
1370;SDS011;14306;49.942;11.570;2023-06-14T14:55:52;7.20;;;3.73;;
1370;SDS011;14306;49.942;11.570;2023-06-14T14:58:20;5.73;;;3.70;;
1370;SDS011;14306;49.942;11.570;2023-06-14T15:00:48;6.27;;;3.47;;
1370;SDS011;14306;49.942;11.570;2023-06-14T15:03:17;5.50;;;3.30;;